Time;durP1;ratioP1;P1;durP2;ratioP2;P2;SDS_P1;SDS_P2;PMS_P1;PMS_P2;Temp;Humidity;BMP_temperature;BMP_pressure;BME280_temperature;BME280_humidity;BME280_pressure;Samples;Min_cycle;Max_cycle;Signal;HPM_P1;HPM_P2
2023/08/27 00:00:42;;;;;;;10.20;6.55;;;;;;;16.76;100.00;96098.34;5009836;28;20041;-70
2023/08/27 00:03:08;;;;;;;7.47;5.43;;;;;;;16.82;100.00;96105.72;5040455;28;20139;-71
2023/08/27 00:05:40;;;;;;;6.70;4.68;;;;;;;16.91;100.00;96113.50;5045803;28;20452;-71
2023/08/27 00:08:05;;;;;;;11.35;4.82;;;;;;;17.05;100.00;96133.81;5039914;28;20052;-70
2023/08/27 00:10:31;;;;;;;7.03;4.97;;;;;;;17.06;100.00;96129.84;5045130;28;20059;-71
2023/08/27 00:12:57;;;;;;;7.97;5.07;;;;;;;17.02;100.00;96120.84;5044861;28;20713;-70
2023/08/27 00:15:23;;;;;;;7.07;5.00;;;;;;;17.15;100.00;96136.38;5021811;28;20099;-70
2023/08/27 00:17:48;;;;;;;6.60;4.63;;;;;;;17.16;100.00;96134.38;5044139;28;20037;-71
2023/08/27 00:20:14;;;;;;;9.45;5.13;;;;;;;17.08;100.00;96119.13;5040139;28;20037;-70
2023/08/27 00:22:40;;;;;;;8.77;4.53;;;;;;;17.02;100.00;96123.59;5044232;28;20045;-70
2023/08/27 00:25:07;;;;;;;7.35;5.13;;;;;;;16.94;100.00;96134.81;5039950;28;20033;-70
2023/08/27 00:27:33;;;;;;;12.68;5.50;;;;;;;16.91;100.00;96129.34;5026769;28;20127;-71
2023/08/27 00:30:00;;;;;;;14.57;6.15;;;;;;;16.90;100.00;96119.47;5043629;28;20120;-71
2023/08/27 00:32:30;;;;;;;9.00;5.40;;;;;;;16.85;100.00;96119.94;5036982;28;20033;-71
2023/08/27 00:34:55;;;;;;;;;;;;;;;16.87;100.00;96112.00;5033351;28;20057;-70
2023/08/27 00:37:22;;;;;;;7.50;4.70;;;;;;;16.86;100.00;96108.47;5035675;28;21052;-70
2023/08/27 00:39:47;;;;;;;10.18;5.65;;;;;;;16.93;100.00;96111.09;5042327;28;20056;-69
2023/08/27 00:42:12;;;;;;;9.52;5.53;;;;;;;17.08;100.00;96102.53;5037733;28;20075;-70
2023/08/27 00:44:38;;;;;;;8.50;5.38;;;;;;;17.07;100.00;96090.69;5044280;28;20041;-70
2023/08/27 00:47:04;;;;;;;9.27;5.07;;;;;;;17.09;100.00;96099.34;5038480;28;20037;-67
2023/08/27 00:49:30;;;;;;;7.07;4.55;;;;;;;17.15;100.00;96105.16;5042525;28;20037;-71
2023/08/27 00:51:57;;;;;;;8.40;5.22;;;;;;;17.20;100.00;96097.16;5025383;28;20048;-70
2023/08/27 00:54:24;;;;;;;8.93;5.88;;;;;;;17.25;100.00;96098.66;5020072;28;20486;-69
2023/08/27 00:56:51;;;;;;;9.45;5.20;;;;;;;17.32;100.00;96104.06;5024397;28;20055;-69
2023/08/27 00:59:16;;;;;;;10.20;5.70;;;;;;;17.43;100.00;96103.84;5037658;28;20052;-69
2023/08/27 01:01:42;;;;;;;8.50;5.30;;;;;;;17.32;100.00;96101.28;5042228;28;20393;-70
2023/08/27 01:04:08;;;;;;;11.32;5.63;;;;;;;17.29;100.00;96106.88;5037867;28;20509;-70
2023/08/27 01:06:34;;;;;;;6.47;5.25;;;;;;;17.24;100.00;96110.91;5049844;28;20044;-69
2023/08/27 01:09:06;;;;;;;8.30;5.50;;;;;;;17.27;100.00;96109.28;5047303;28;20044;-70
2023/08/27 01:11:40;;;;;;;10.35;5.68;;;;;;;17.32;100.00;96119.84;5023229;28;20037;-69
2023/08/27 01:14:08;;;;;;;8.90;5.70;;;;;;;17.23;100.00;96128.72;5037529;28;20037;-67
2023/08/27 01:16:35;;;;;;;11.52;5.85;;;;;;;17.14;100.00;96123.75;5042323;28;20041;-70
2023/08/27 01:19:01;;;;;;;9.55;5.78;;;;;;;17.10;100.00;96120.25;5042047;28;20123;-70
2023/08/27 01:21:27;;;;;;;9.18;5.60;;;;;;;17.11;100.00;96101.69;5037105;28;20199;-70
2023/08/27 01:23:53;;;;;;;8.52;5.25;;;;;;;17.22;100.00;96107.03;5042162;28;20044;-70
2023/08/27 01:26:42;;;;;;;8.45;5.32;;;;;;;17.23;100.00;96111.34;5037970;28;20033;-69
2023/08/27 01:29:26;;;;;;;8.40;4.60;;;;;;;17.15;100.00;96110.69;5037286;28;20490;-70
2023/08/27 01:32:17;;;;;;;8.88;5.30;;;;;;;17.18;100.00;96109.88;5042863;28;20048;-71
2023/08/27 01:34:44;;;;;;;8.43;5.82;;;;;;;17.06;100.00;96104.94;5048850;28;20040;-69
2023/08/27 01:37:12;;;;;;;11.45;5.85;;;;;;;17.00;100.00;96107.44;5047786;28;20080;-68
2023/08/27 01:39:39;;;;;;;11.85;6.10;;;;;;;17.09;100.00;96104.13;5031257;28;20045;-70
2023/08/27 01:42:04;;;;;;;7.35;5.32;;;;;;;17.17;100.00;96109.06;5037338;28;20037;-66
2023/08/27 01:44:30;;;;;;;11.00;5.70;;;;;;;17.11;100.00;96121.84;5041730;28;20087;-69
2023/08/27 01:46:56;;;;;;;9.15;5.72;;;;;;;17.07;100.00;96134.16;5023054;28;20477;-69
2023/08/27 01:49:21;;;;;;;12.90;5.72;;;;;;;17.06;100.00;96152.75;5036039;28;20060;-69
2023/08/27 01:51:46;;;;;;;12.82;6.63;;;;;;;16.97;100.00;96152.53;5042138;28;20132;-69
2023/08/27 01:54:13;;;;;;;9.73;5.72;;;;;;;16.91;100.00;96159.75;5036944;28;20474;-70
2023/08/27 01:56:38;;;;;;;9.23;4.72;;;;;;;17.00;100.00;96135.09;5041983;28;20056;-69
2023/08/27 01:59:04;;;;;;;7.28;4.22;;;;;;;17.03;100.00;96133.44;5036335;28;20040;-66
2023/08/27 02:01:29;;;;;;;8.45;3.95;;;;;;;16.98;100.00;96149.34;5040433;28;20470;-69
2023/08/27 02:03:55;;;;;;;5.20;3.30;;;;;;;17.02;100.00;96156.81;5041062;28;20395;-71
2023/08/27 02:06:20;;;;;;;5.85;3.35;;;;;;;17.10;100.00;96164.53;5037001;28;20045;-68
2023/08/27 02:08:46;;;;;;;4.85;3.28;;;;;;;17.03;100.00;96161.13;5052545;23;20420;-68
2023/08/27 02:11:11;;;;;;;5.13;3.15;;;;;;;16.92;100.00;96161.31;5035492;28;20071;-69
2023/08/27 02:13:36;;;;;;;6.20;3.55;;;;;;;16.87;100.00;96154.28;5041295;28;20037;-68
2023/08/27 02:16:02;;;;;;;5.90;3.03;;;;;;;16.75;100.00;96141.81;5039138;28;20048;-68
2023/08/27 02:18:27;;;;;;;5.65;3.25;;;;;;;16.80;100.00;96148.84;5038562;28;20041;-68
2023/08/27 02:20:55;;;;;;;4.78;2.90;;;;;;;17.01;100.00;96139.41;5042838;28;20040;-69
2023/08/27 02:23:20;;;;;;;7.20;3.10;;;;;;;16.96;100.00;96148.19;5038313;28;20041;-69
2023/08/27 02:25:45;;;;;;;11.05;3.42;;;;;;;16.90;100.00;96153.44;5023692;28;20076;-69
2023/08/27 02:28:11;;;;;;;5.75;3.20;;;;;;;16.79;100.00;96155.56;5019229;28;20455;-67
2023/08/27 02:30:36;;;;;;;6.32;3.15;;;;;;;16.94;100.00;96156.94;5024208;28;20040;-68
2023/08/27 02:33:02;;;;;;;9.40;3.28;;;;;;;17.07;100.00;96161.81;5041586;28;20083;-68
2023/08/27 02:35:27;;;;;;;6.88;3.33;;;;;;;17.13;100.00;96169.22;5043756;28;20045;-70
2023/08/27 02:37:52;;;;;;;6.65;3.17;;;;;;;17.19;100.00;96173.06;5047193;28;20627;-68
2023/08/27 02:40:18;;;;;;;4.00;3.00;;;;;;;17.20;100.00;96176.63;5040115;28;20047;-68
2023/08/27 02:42:43;;;;;;;4.18;2.92;;;;;;;17.21;100.00;96186.47;5039892;28;20041;-68
2023/08/27 02:45:09;;;;;;;4.82;2.30;;;;;;;17.16;100.00;96167.59;5038690;28;20431;-67
2023/08/27 02:47:35;;;;;;;5.32;2.08;;;;;;;17.21;100.00;96169.88;5042258;28;20041;-67
2023/08/27 02:50:00;;;;;;;5.22;1.88;;;;;;;17.22;100.00;96179.75;5042241;28;20041;-67
2023/08/27 02:52:25;;;;;;;3.28;2.08;;;;;;;17.16;100.00;96182.22;5036535;28;20381;-68
2023/08/27 02:54:51;;;;;;;5.30;2.45;;;;;;;17.20;100.00;96184.94;5040968;28;20098;-67
2023/08/27 02:57:16;;;;;;;3.58;2.45;;;;;;;17.13;100.00;96196.91;5036958;28;20040;-68
2023/08/27 02:59:42;;;;;;;3.70;2.33;;;;;;;17.02;100.00;96198.31;5041792;28;20059;-69
2023/08/27 03:02:07;;;;;;;4.75;2.50;;;;;;;16.92;100.00;96200.81;5036467;28;20493;-67
2023/08/27 03:04:33;;;;;;;5.47;2.85;;;;;;;16.81;100.00;96205.69;5041858;28;20132;-69
2023/08/27 03:06:58;;;;;;;5.25;2.83;;;;;;;16.86;100.00;96202.50;5041714;28;20047;-69
2023/08/27 03:09:24;;;;;;;5.65;2.85;;;;;;;16.95;100.00;96204.72;5038738;28;20504;-69
2023/08/27 03:11:49;;;;;;;4.75;2.78;;;;;;;16.97;100.00;96194.78;5044854;28;20080;-69
2023/08/27 03:14:14;;;;;;;6.18;2.65;;;;;;;17.00;100.00;96198.72;5034635;28;20056;-70
2023/08/27 03:16:40;;;;;;;5.20;2.78;;;;;;;17.03;100.00;96188.78;5042113;28;20504;-70
2023/08/27 03:19:05;;;;;;;4.32;2.80;;;;;;;17.06;100.00;96197.03;5049044;28;20048;-68
2023/08/27 03:21:31;;;;;;;6.00;3.58;;;;;;;17.05;100.00;96194.66;5052138;28;20045;-69
2023/08/27 03:23:56;;;;;;;5.13;3.42;;;;;;;16.96;100.00;96195.22;5046735;28;20037;-69
2023/08/27 03:26:22;;;;;;;8.52;3.00;;;;;;;16.72;100.00;96197.94;5040533;28;20057;-70
2023/08/27 03:28:47;;;;;;;6.90;2.85;;;;;;;16.80;100.00;96202.16;5050113;28;20052;-71
2023/08/27 03:31:13;;;;;;;5.45;2.80;;;;;;;16.63;100.00;96192.16;5021647;28;20040;-70
2023/08/27 03:33:38;;;;;;;5.07;2.80;;;;;;;16.59;100.00;96194.22;5044255;28;20045;-69
2023/08/27 03:36:04;;;;;;;5.22;3.13;;;;;;;16.49;100.00;96204.22;5042607;28;20044;-69
2023/08/27 03:38:30;;;;;;;5.68;3.00;;;;;;;16.53;100.00;96206.91;5045277;28;20417;-69
2023/08/27 03:40:55;;;;;;;5.82;3.25;;;;;;;16.51;100.00;96212.09;5044816;28;20052;-69
2023/08/27 03:43:21;;;;;;;6.05;3.15;;;;;;;16.48;100.00;96222.00;5038300;28;20048;-70
2023/08/27 03:45:46;;;;;;;4.60;3.08;;;;;;;16.59;100.00;96214.34;5045426;28;20493;-70
2023/08/27 03:48:12;;;;;;;5.38;3.03;;;;;;;16.55;100.00;96216.38;5041188;28;20053;-70
2023/08/27 03:50:37;;;;;;;4.45;3.08;;;;;;;16.52;100.00;96211.66;5029270;28;20053;-69
2023/08/27 03:53:04;;;;;;;5.63;3.33;;;;;;;16.40;100.00;96206.72;5054664;28;20592;-68
2023/08/27 03:55:30;;;;;;;6.07;3.45;;;;;;;16.34;100.00;96202.88;5046631;28;20132;-72
2023/08/27 03:57:55;;;;;;;6.15;3.50;;;;;;;16.29;100.00;96208.84;5028327;28;20065;-69
2023/08/27 04:00:21;;;;;;;4.03;2.90;;;;;;;16.30;100.00;96213.19;5041101;28;20044;-70
2023/08/27 04:02:47;;;;;;;5.00;3.22;;;;;;;16.32;100.00;96210.78;5044643;28;20032;-70
2023/08/27 04:05:12;;;;;;;4.93;3.50;;;;;;;16.27;100.00;96214.03;5044495;28;20088;-70
2023/08/27 04:07:37;;;;;;;6.05;3.80;;;;;;;16.24;100.00;96207.34;5030432;28;20064;-70
2023/08/27 04:10:04;;;;;;;5.22;3.50;;;;;;;16.30;100.00;96202.16;5024313;28;20079;-69
2023/08/27 04:12:33;;;;;;;6.90;3.65;;;;;;;16.29;100.00;96206.88;5045784;28;20041;-69
2023/08/27 04:14:58;;;;;;;5.80;3.47;;;;;;;16.34;100.00;96219.44;5045603;28;20049;-69
2023/08/27 04:17:24;;;;;;;6.43;3.30;;;;;;;16.35;100.00;96216.28;5040838;28;20970;-69
2023/08/27 04:19:51;;;;;;;7.57;3.47;;;;;;;16.25;100.00;96211.66;5026229;28;20049;-70
2023/08/27 04:22:16;;;;;;;5.65;3.15;;;;;;;16.41;100.00;96216.59;5039220;28;20033;-69
2023/08/27 04:24:42;;;;;;;5.22;3.38;;;;;;;16.41;100.00;96222.13;5026276;28;20448;-68
2023/08/27 04:27:08;;;;;;;8.18;3.53;;;;;;;16.29;100.00;96209.63;5038928;28;20041;-68
2023/08/27 04:29:33;;;;;;;4.28;2.75;;;;;;;15.99;100.00;96204.91;5045145;28;20048;-70
2023/08/27 04:31:58;;;;;;;5.50;3.05;;;;;;;15.78;100.00;96209.50;5026033;28;20065;-68
2023/08/27 04:34:24;;;;;;;7.45;3.38;;;;;;;15.90;100.00;96219.25;5039214;28;20868;-69
2023/08/27 04:36:49;;;;;;;5.35;3.83;;;;;;;16.03;100.00;96217.47;5043795;28;20051;-69
2023/08/27 04:39:15;;;;;;;7.78;3.33;;;;;;;16.13;100.00;96224.06;5039152;28;20041;-69
2023/08/27 04:41:40;;;;;;;7.75;2.97;;;;;;;16.21;100.00;96219.22;5028340;28;20045;-70
2023/08/27 04:44:06;;;;;;;4.55;2.70;;;;;;;15.99;100.00;96219.50;5039493;28;20130;-69
2023/08/27 04:46:31;;;;;;;4.70;2.72;;;;;;;16.07;100.00;96213.91;5045330;28;20040;-69
2023/08/27 04:48:57;;;;;;;4.40;2.60;;;;;;;16.15;100.00;96218.91;5044477;28;20044;-68
2023/08/27 04:51:26;;;;;;;6.80;2.78;;;;;;;16.11;100.00;96218.16;5040023;28;20075;-70
2023/08/27 04:53:52;;;;;;;5.97;2.28;;;;;;;16.19;100.00;96216.88;5044437;28;20063;-69
2023/08/27 04:56:18;;;;;;;7.15;2.17;;;;;;;16.09;100.00;96203.22;5039439;28;20044;-69
2023/08/27 04:58:43;;;;;;;5.28;1.88;;;;;;;16.10;100.00;96199.22;5053941;28;20045;-69
2023/08/27 05:01:09;;;;;;;5.85;2.00;;;;;;;15.84;100.00;96216.13;5050761;28;20090;-68
2023/08/27 05:03:34;;;;;;;4.50;1.77;;;;;;;15.75;100.00;96213.09;5046714;28;20080;-68
2023/08/27 05:06:00;;;;;;;5.25;1.90;;;;;;;15.71;100.00;96192.22;5050903;28;20568;-68
2023/08/27 05:08:26;;;;;;;5.82;2.08;;;;;;;15.61;100.00;96189.19;5045257;28;20052;-70
2023/08/27 05:10:52;;;;;;;6.15;1.95;;;;;;;15.45;100.00;96189.75;5044708;28;20041;-69
2023/08/27 05:13:17;;;;;;;3.65;2.03;;;;;;;15.51;100.00;96172.75;5040087;28;20060;-70
2023/08/27 05:15:43;;;;;;;4.05;2.22;;;;;;;15.47;100.00;96181.84;5046449;28;20044;-70
2023/08/27 05:18:11;;;;;;;4.85;2.17;;;;;;;15.48;100.00;96204.69;5038975;28;20048;-70
2023/08/27 05:20:37;;;;;;;5.38;1.85;;;;;;;15.42;100.00;96196.06;5045490;28;20494;-68
2023/08/27 05:23:03;;;;;;;6.43;2.05;;;;;;;15.45;100.00;96195.25;5041898;28;20049;-68
2023/08/27 05:25:28;;;;;;;4.25;1.90;;;;;;;15.43;100.00;96205.94;5024173;28;20141;-69
2023/08/27 05:27:54;;;;;;;5.75;1.83;;;;;;;15.42;100.00;96214.63;5042925;28;20048;-70
2023/08/27 05:30:19;;;;;;;7.50;2.10;;;;;;;15.41;100.00;96215.78;5038174;28;20131;-71
2023/08/27 05:32:44;;;;;;;6.47;2.03;;;;;;;15.39;100.00;96204.38;5042359;28;20118;-69
2023/08/27 05:35:10;;;;;;;3.70;1.98;;;;;;;15.40;100.00;96200.44;5037027;28;20040;-70
2023/08/27 05:37:36;;;;;;;6.03;2.25;;;;;;;15.48;100.00;96199.16;5043042;28;20045;-70
2023/08/27 05:40:06;;;;;;;4.35;2.20;;;;;;;15.25;100.00;96195.09;5039453;28;20040;-69
2023/08/27 05:42:32;;;;;;;3.88;1.88;;;;;;;15.26;100.00;96199.38;5042452;28;20432;-69
2023/08/27 05:44:58;;;;;;;4.70;2.08;;;;;;;15.25;100.00;96192.31;5042294;28;20481;-70
2023/08/27 05:47:23;;;;;;;5.20;2.00;;;;;;;15.40;100.00;96186.66;5019307;28;20060;-70
2023/08/27 05:49:49;;;;;;;6.22;2.10;;;;;;;15.42;100.00;96190.56;5042358;28;20045;-69
2023/08/27 05:52:14;;;;;;;5.80;2.22;;;;;;;15.42;100.00;96184.25;5038004;28;20045;-70
2023/08/27 05:54:40;;;;;;;4.53;1.90;;;;;;;15.14;100.00;96188.09;5024689;28;20041;-70
2023/08/27 05:57:05;;;;;;;4.32;2.60;;;;;;;15.08;100.00;96187.75;5037663;28;20040;-68
2023/08/27 05:59:30;;;;;;;5.90;2.00;;;;;;;15.21;100.00;96190.78;5041618;28;20040;-69
2023/08/27 06:01:57;;;;;;;4.50;2.10;;;;;;;15.24;100.00;96190.75;5025022;28;20036;-70
2023/08/27 06:04:23;;;;;;;5.43;2.20;;;;;;;15.12;100.00;96188.50;5037476;28;20367;-70
2023/08/27 06:06:48;;;;;;;4.50;2.00;;;;;;;15.13;100.00;96189.31;5040533;28;20136;-67
2023/08/27 06:09:14;;;;;;;4.50;2.10;;;;;;;15.12;100.00;96190.47;5038959;28;20169;-69
2023/08/27 06:11:39;;;;;;;6.78;2.22;;;;;;;15.23;100.00;96200.22;5044707;28;20049;-69
2023/08/27 06:14:05;;;;;;;5.53;2.42;;;;;;;15.17;100.00;96198.31;5037748;28;20397;-69
2023/08/27 06:16:30;;;;;;;5.47;2.65;;;;;;;15.24;100.00;96207.28;5042983;28;20045;-69
2023/08/27 06:18:56;;;;;;;4.65;2.00;;;;;;;15.32;100.00;96208.00;5042382;28;20033;-68
2023/08/27 06:21:22;;;;;;;4.53;2.20;;;;;;;15.42;100.00;96209.09;5017221;28;20110;-70
2023/08/27 06:23:48;;;;;;;6.82;2.08;;;;;;;15.44;100.00;96204.72;5043447;28;20061;-70
2023/08/27 06:26:13;;;;;;;7.85;2.60;;;;;;;15.49;100.00;96206.25;5038021;28;20061;-70
2023/08/27 06:28:39;;;;;;;5.88;2.35;;;;;;;15.41;100.00;96216.59;5043971;28;20388;-69
2023/08/27 06:31:04;;;;;;;5.13;2.20;;;;;;;15.26;100.00;96206.88;5040006;28;20047;-68
2023/08/27 06:33:29;;;;;;;4.00;2.20;;;;;;;15.32;100.00;96190.66;5043538;28;20045;-71
2023/08/27 06:35:55;;;;;;;5.50;2.58;;;;;;;15.11;100.00;96173.16;5051289;28;20029;-69
2023/08/27 06:38:20;;;;;;;4.72;2.58;;;;;;;14.83;100.00;96163.94;5035675;28;20139;-69
2023/08/27 06:40:46;;;;;;;4.72;2.45;;;;;;;14.58;100.00;96164.16;5023433;28;20037;-68
2023/08/27 06:43:11;;;;;;;3.72;2.22;;;;;;;14.48;100.00;96163.03;5020189;28;20052;-70
2023/08/27 06:45:36;;;;;;;7.40;2.55;;;;;;;14.57;100.00;96165.34;5043080;28;20505;-69
2023/08/27 06:48:02;;;;;;;4.22;2.28;;;;;;;14.53;100.00;96159.03;5024041;28;20053;-69
2023/08/27 06:50:28;;;;;;;4.18;2.42;;;;;;;14.42;100.00;96156.41;5039304;28;20473;-68
2023/08/27 06:52:53;;;;;;;5.72;2.58;;;;;;;14.35;100.00;96150.94;5023109;28;20048;-68
2023/08/27 06:55:18;;;;;;;7.45;2.47;;;;;;;14.42;100.00;96145.38;5037778;28;20123;-68
2023/08/27 06:57:44;;;;;;;4.63;2.70;;;;;;;14.46;100.00;96151.63;5049596;28;20048;-67
2023/08/27 07:00:12;;;;;;;6.43;2.15;;;;;;;14.47;100.00;96136.66;5039344;28;20037;-69
2023/08/27 07:02:38;;;;;;;3.75;2.22;;;;;;;14.49;100.00;96119.72;5046841;28;20057;-68
2023/08/27 07:05:08;;;;;;;4.93;2.35;;;;;;;14.59;100.00;96120.88;5045782;28;20604;-69
2023/08/27 07:07:38;;;;;;;7.28;3.15;;;;;;;14.76;100.00;96121.88;5029919;28;20087;-68
2023/08/27 07:10:05;;;;;;;5.63;2.40;;;;;;;15.10;100.00;96138.47;5040880;28;20509;-69
2023/08/27 07:12:34;;;;;;;4.70;2.45;;;;;;;15.54;100.00;96149.81;5045575;28;20045;-68
2023/08/27 07:15:03;;;;;;;3.30;2.10;;;;;;;15.92;100.00;96160.81;5046306;28;20377;-68
2023/08/27 07:17:29;;;;;;;4.20;2.20;;;;;;;16.12;100.00;96163.72;5044063;28;20077;-68
2023/08/27 07:19:54;;;;;;;5.10;2.15;;;;;;;16.10;100.00;96168.84;5046253;28;20495;-67
2023/08/27 07:22:20;;;;;;;5.93;1.70;;;;;;;16.10;100.00;96160.56;5023184;28;20045;-67
2023/08/27 07:24:46;;;;;;;5.07;2.45;;;;;;;15.99;100.00;96150.47;5027368;28;20057;-69
2023/08/27 07:27:12;;;;;;;5.35;2.22;;;;;;;15.58;100.00;96147.81;5041093;28;20069;-67
2023/08/27 07:29:38;;;;;;;4.57;2.25;;;;;;;15.44;100.00;96155.06;5044865;28;20036;-69
2023/08/27 07:32:04;;;;;;;5.10;2.13;;;;;;;15.39;100.00;96152.75;5042215;28;20091;-69
2023/08/27 07:34:30;;;;;;;4.13;2.00;;;;;;;15.28;100.00;96161.13;5050243;28;20044;-69
2023/08/27 07:36:56;;;;;;;4.93;2.30;;;;;;;15.43;100.00;96166.50;5018163;28;20429;-69
2023/08/27 07:39:22;;;;;;;6.57;2.40;;;;;;;15.66;100.00;96183.22;5029015;28;20186;-72
2023/08/27 07:41:49;;;;;;;4.80;2.00;;;;;;;15.52;100.00;96186.13;5042804;28;20041;-72
2023/08/27 07:44:17;;;;;;;3.13;1.52;;;;;;;15.62;100.00;96178.91;5041663;28;20052;-72
2023/08/27 07:46:43;;;;;;;4.80;1.83;;;;;;;15.52;100.00;96171.53;5027493;28;20428;-72
2023/08/27 07:49:10;;;;;;;3.85;1.60;;;;;;;15.41;100.00;96166.13;5018421;28;20098;-71
2023/08/27 07:51:36;;;;;;;5.45;1.90;;;;;;;15.57;100.00;96160.03;5026765;28;20041;-72
2023/08/27 07:54:01;;;;;;;3.60;1.92;;;;;;;15.49;100.00;96162.88;5043907;28;20041;-69
2023/08/27 07:56:26;;;;;;;5.25;1.92;;;;;;;15.35;100.00;96156.75;5041006;28;20247;-72
2023/08/27 07:58:52;;;;;;;5.75;1.95;;;;;;;15.23;100.00;96161.59;5025515;28;20429;-71
2023/08/27 08:01:17;;;;;;;5.47;2.20;;;;;;;15.38;100.00;96162.22;5043406;28;20040;-69
2023/08/27 08:03:43;;;;;;;4.80;1.80;;;;;;;15.22;100.00;96160.03;5044521;28;20147;-69
2023/08/27 08:06:08;;;;;;;3.45;1.83;;;;;;;15.11;100.00;96167.63;5040521;28;20474;-69
2023/08/27 08:08:34;;;;;;;4.43;2.13;;;;;;;15.25;100.00;96173.00;5045640;28;20083;-70
2023/08/27 08:11:00;;;;;;;3.38;1.98;;;;;;;15.22;100.00;96170.28;5059550;28;20047;-69
2023/08/27 08:13:26;;;;;;;6.05;2.42;;;;;;;15.26;100.00;96179.31;5044134;28;20041;-70
2023/08/27 08:15:51;;;;;;;4.07;2.10;;;;;;;15.17;100.00;96174.25;5027694;28;20075;-69
2023/08/27 08:18:16;;;;;;;3.47;1.92;;;;;;;15.21;100.00;96175.00;5039759;28;20041;-69
2023/08/27 08:20:42;;;;;;;3.30;1.77;;;;;;;15.24;100.00;96178.94;5045758;28;20049;-67
2023/08/27 08:23:08;;;;;;;4.22;2.13;;;;;;;15.28;100.00;96177.69;5022376;28;20048;-68
2023/08/27 08:25:35;;;;;;;3.90;1.77;;;;;;;15.33;100.00;96170.19;5044367;28;20040;-68
2023/08/27 08:28:01;;;;;;;5.25;2.20;;;;;;;15.31;100.00;96167.81;5044233;28;20497;-68
2023/08/27 08:30:26;;;;;;;3.90;1.80;;;;;;;15.29;100.00;96173.75;5039537;28;20044;-69
2023/08/27 08:32:52;;;;;;;2.28;1.42;;;;;;;15.39;100.00;96177.56;5044031;28;20120;-69
2023/08/27 08:35:18;;;;;;;4.35;1.67;;;;;;;15.76;100.00;96173.25;5021599;28;20045;-69
2023/08/27 08:37:44;;;;;;;4.20;1.73;;;;;;;15.66;100.00;96169.41;5044238;28;20037;-69
2023/08/27 08:40:14;;;;;;;3.10;1.60;;;;;;;15.75;100.00;96170.91;5039150;28;20041;-70
2023/08/27 08:42:55;;;;;;;3.08;1.58;;;;;;;15.78;100.00;96165.31;5044042;28;20060;-69
2023/08/27 08:45:42;;;;;;;4.85;1.90;;;;;;;15.65;100.00;96161.53;5039081;28;20041;-69
2023/08/27 08:48:11;;;;;;;3.28;1.55;;;;;;;15.60;100.00;96153.69;5037213;28;20127;-69
2023/08/27 08:50:40;;;;;;;3.78;1.60;;;;;;;15.61;100.00;96149.72;5025951;28;20048;-69
2023/08/27 08:53:16;;;;;;;3.17;1.43;;;;;;;15.66;100.00;96154.78;5038738;28;20037;-70
2023/08/27 08:55:57;;;;;;;4.50;1.73;;;;;;;15.76;100.00;96155.91;5043897;28;20044;-68
2023/08/27 08:58:27;;;;;;;2.53;1.48;;;;;;;15.84;100.00;96158.13;5038617;28;20041;-68
2023/08/27 09:00:55;;;;;;;4.70;1.45;;;;;;;15.64;100.00;96163.50;5043494;28;20106;-68
2023/08/27 09:03:21;;;;;;;5.40;1.83;;;;;;;15.64;100.00;96155.22;5039670;28;20059;-68
2023/08/27 09:05:48;;;;;;;3.80;1.70;;;;;;;15.74;100.00;96133.44;5042627;28;20040;-70
2023/08/27 09:08:15;;;;;;;4.07;1.50;;;;;;;15.56;100.00;96128.91;5038195;28;20405;-69
2023/08/27 09:10:40;;;;;;;2.97;1.52;;;;;;;15.49;100.00;96131.75;5044174;28;20124;-69
2023/08/27 09:13:05;;;;;;;3.53;1.42;;;;;;;15.52;100.00;96133.69;5040577;28;20083;-68
2023/08/27 09:15:31;;;;;;;3.60;1.30;;;;;;;15.53;100.00;96134.47;5044152;28;20045;-71
2023/08/27 09:17:56;;;;;;;3.03;1.35;;;;;;;15.57;100.00;96140.72;5043562;28;20065;-71
2023/08/27 09:20:22;;;;;;;2.83;1.40;;;;;;;15.43;100.00;96147.97;5038780;28;20911;-70
2023/08/27 09:22:48;;;;;;;4.95;1.70;;;;;;;15.42;100.00;96151.94;5043937;28;20037;-70
2023/08/27 09:25:14;;;;;;;2.88;1.60;;;;;;;15.41;100.00;96155.09;5022735;28;20128;-68
2023/08/27 09:27:40;;;;;;;4.20;1.58;;;;;;;15.40;100.00;96161.81;5043522;28;20051;-71
2023/08/27 09:30:07;;;;;;;4.72;1.52;;;;;;;15.47;100.00;96153.47;5038301;28;20044;-68
2023/08/27 09:32:33;;;;;;;2.20;1.40;;;;;;;15.48;100.00;96158.56;5042545;28;20037;-70
2023/08/27 09:35:05;;;;;;;4.90;1.35;;;;;;;15.43;100.00;96161.78;5043792;28;20140;-69
2023/08/27 09:37:39;;;;;;;2.58;1.00;;;;;;;15.48;100.00;96158.56;5044489;28;20041;-69
2023/08/27 09:40:13;;;;;;;2.97;1.35;;;;;;;15.35;100.00;96156.75;5041432;28;20071;-67
2023/08/27 09:42:39;;;;;;;4.03;1.17;;;;;;;15.33;100.00;96150.88;5044313;28;20124;-70
2023/08/27 09:45:05;;;;;;;2.13;1.02;;;;;;;15.11;100.00;96151.09;5053483;28;20079;-66
2023/08/27 09:47:36;;;;;;;5.15;1.33;;;;;;;15.10;100.00;96136.50;5052662;28;20107;-69
2023/08/27 09:50:15;;;;;;;2.83;1.40;;;;;;;15.06;100.00;96148.78;5024392;28;20049;-66
2023/08/27 09:52:42;;;;;;;4.67;1.47;;;;;;;15.01;100.00;96140.94;5042739;28;20048;-69
2023/08/27 09:55:14;;;;;;;2.33;1.42;;;;;;;15.00;100.00;96142.94;5039197;28;20076;-69
2023/08/27 09:57:47;;;;;;;2.08;1.05;;;;;;;14.94;100.00;96146.53;5026025;28;20469;-70
2023/08/27 10:00:14;;;;;;;2.30;1.40;;;;;;;14.97;100.00;96148.47;5038128;28;20040;-68
2023/08/27 10:02:42;;;;;;;2.60;1.35;;;;;;;14.82;100.00;96147.81;5053252;28;20119;-69
2023/08/27 10:05:08;;;;;;;1.95;1.17;;;;;;;14.89;100.00;96154.06;5043632;28;20512;-70
2023/08/27 10:07:34;;;;;;;2.25;1.10;;;;;;;15.02;100.00;96159.84;5030467;28;20041;-71
2023/08/27 10:10:02;;;;;;;2.92;1.20;;;;;;;14.98;100.00;96161.06;5043769;28;20056;-69
2023/08/27 10:12:29;;;;;;;5.57;1.70;;;;;;;14.87;100.00;96152.88;5037676;28;20069;-69
2023/08/27 10:14:55;;;;;;;3.28;1.92;;;;;;;14.84;100.00;96156.47;5043766;28;20048;-69
2023/08/27 10:17:22;;;;;;;3.42;1.25;;;;;;;14.78;100.00;96141.56;5037468;28;20048;-70
2023/08/27 10:19:48;;;;;;;3.90;1.42;;;;;;;14.66;100.00;96138.13;5044443;28;20033;-70
2023/08/27 10:22:14;;;;;;;4.18;1.35;;;;;;;14.68;100.00;96145.97;5039089;28;20624;-70
2023/08/27 10:24:41;;;;;;;4.30;1.45;;;;;;;14.81;100.00;96157.28;5042592;28;20041;-71
2023/08/27 10:27:06;;;;;;;5.50;1.40;;;;;;;14.63;100.00;96168.47;5037443;28;20033;-70
2023/08/27 10:29:33;;;;;;;6.18;1.30;;;;;;;14.58;100.00;96177.94;5042060;28;20043;-69
2023/08/27 10:31:59;;;;;;;3.03;1.23;;;;;;;14.81;100.00;96180.13;5042367;28;20044;-69
2023/08/27 10:34:28;;;;;;;2.00;1.17;;;;;;;14.68;100.00;96181.81;5021524;28;20045;-70
2023/08/27 10:36:56;;;;;;;2.40;1.40;;;;;;;14.63;100.00;96185.78;5047325;28;20125;-70
2023/08/27 10:39:25;;;;;;;2.60;1.27;;;;;;;14.70;100.00;96188.47;5042749;28;20091;-70
2023/08/27 10:41:50;;;;;;;2.93;1.33;;;;;;;14.63;100.00;96183.00;5051899;28;20118;-69
2023/08/27 10:44:21;;;;;;;2.58;1.23;;;;;;;14.69;100.00;96192.44;5042623;28;20280;-69
2023/08/27 10:47:17;;;;;;;2.85;1.27;;;;;;;14.55;100.00;96178.72;5029682;28;20072;-70
2023/08/27 10:49:47;;;;;;;2.90;1.35;;;;;;;14.50;100.00;96166.16;5045952;28;20044;-71
2023/08/27 10:52:20;;;;;;;2.42;1.42;;;;;;;14.54;100.00;96171.66;5042140;28;20405;-68
2023/08/27 10:54:46;;;;;;;5.90;1.50;;;;;;;14.53;100.00;96173.63;5047649;28;20086;-70
2023/08/27 10:57:20;;;;;;;5.78;1.67;;;;;;;14.59;100.00;96182.28;5042001;28;20044;-70
2023/08/27 10:59:46;;;;;;;2.75;1.50;;;;;;;14.64;100.00;96183.78;5038741;28;20060;-69
2023/08/27 11:02:11;;;;;;;2.65;1.35;;;;;;;14.84;100.00;96189.56;5042972;28;20037;-69
2023/08/27 11:04:39;;;;;;;3.58;1.48;;;;;;;14.90;100.00;96199.72;5047044;28;20052;-68
2023/08/27 11:07:15;;;;;;;3.88;1.48;;;;;;;14.70;100.00;96195.97;5040623;28;20041;-71
2023/08/27 11:09:47;;;;;;;7.15;1.63;;;;;;;14.68;100.00;96179.06;5046116;28;20398;-70
2023/08/27 11:12:27;;;;;;;3.90;1.58;;;;;;;14.71;100.00;96187.28;5023051;28;20045;-69
2023/08/27 11:14:54;;;;;;;3.80;1.42;;;;;;;14.71;100.00;96183.72;5046367;28;20068;-70
2023/08/27 11:17:24;;;;;;;2.65;1.20;;;;;;;14.72;100.00;96188.06;5045346;28;20101;-69
2023/08/27 11:19:50;;;;;;;4.20;1.60;;;;;;;14.69;100.00;96188.88;5060598;28;20107;-68
2023/08/27 11:22:20;;;;;;;4.32;1.42;;;;;;;14.94;100.00;96185.13;5041442;28;20052;-68